Time;durP1;ratioP1;P1;durP2;ratioP2;P2;SDS_P1;SDS_P2;PMS_P1;PMS_P2;Temp;Humidity;BMP_temperature;BMP_pressure;BME280_temperature;BME280_humidity;BME280_pressure;Samples;Min_cycle;Max_cycle;Signal;HPM_P1;HPM_P2
2022/01/12 00:07:46;;;;;;;145.70;55.40;;;;;;;-4.09;82.63;100471.52;432523;1270;108427;-40
2022/01/12 00:17:52;;;;;;;;;;;;;;;-4.13;82.35;100470.58;432569;1270;107386;-43
2022/01/12 00:38:29;;;;;;;132.40;53.70;;;;;;;-4.28;82.57;100473.20;432834;1268;110978;-44
2022/01/12 00:48:36;;;;;;;160.90;59.30;;;;;;;-4.34;82.59;100477.65;432852;1270;108836;-42
2022/01/12 00:58:44;;;;;;;137.60;53.90;;;;;;;-4.28;82.53;100478.70;432490;1271;97900;-39
2022/01/12 01:29:23;;;;;;;108.90;43.50;;;;;;;-3.97;82.51;100455.16;432693;1270;97506;-39
2022/01/12 01:39:31;;;;;;;103.20;42.00;;;;;;;-4.04;82.59;100455.38;432676;1270;111149;-44
2022/01/12 02:00:09;;;;;;;111.80;40.30;;;;;;;-4.13;82.49;100452.86;432590;1270;97906;-43
2022/01/12 02:10:17;;;;;;;106.00;44.90;;;;;;;-4.19;82.58;100459.38;432613;1270;111061;-44
2022/01/12 02:41:24;;;;;;;128.10;51.10;;;;;;;-3.92;82.65;100454.85;433212;1270;110084;-40
2022/01/12 02:51:34;;;;;;;121.10;47.50;;;;;;;-3.84;82.57;100457.98;433172;1269;108922;-40
2022/01/12 03:12:07;;;;;;;116.10;46.40;;;;;;;-4.05;82.62;100450.80;433171;1270;111335;-45
2022/01/12 03:22:12;;;;;;;122.60;48.30;;;;;;;-4.13;82.74;100453.55;433031;1270;108835;-42
2022/01/12 03:32:25;;;;;;;124.30;47.80;;;;;;;-4.18;82.75;100450.08;430647;1269;3377807;-43
2022/01/12 03:42:33;;;;;;;113.30;49.90;;;;;;;-4.14;82.77;100447.73;433182;1270;111090;-42
2022/01/12 03:52:40;;;;;;;112.90;47.90;;;;;;;-4.05;82.53;100452.34;433132;1269;108861;-43
2022/01/12 04:02:48;;;;;;;169.60;67.60;;;;;;;-3.86;82.77;100455.81;433124;1269;97558;-42
2022/01/12 04:12:55;;;;;;;165.30;65.00;;;;;;;-3.75;82.98;100455.52;433218;1269;108278;-40
2022/01/12 04:33:29;;;;;;;160.00;64.10;;;;;;;-4.03;82.71;100446.73;432514;1271;97505;-42
2022/01/12 04:43:39;;;;;;;144.90;58.50;;;;;;;-4.13;82.76;100441.31;433165;1269;111143;-42
2022/01/12 04:53:47;;;;;;;134.80;61.20;;;;;;;-4.12;82.74;100446.21;432779;1270;108927;-39
2022/01/12 05:14:21;;;;;;;156.30;60.30;;;;;;;-3.78;82.91;100463.93;433179;1270;109358;-42
2022/01/12 05:24:28;;;;;;;160.90;65.80;;;;;;;-3.79;82.96;100465.89;433194;1268;108897;-42
2022/01/12 05:34:59;;;;;;;159.00;64.20;;;;;;;-3.91;82.94;100467.54;433057;1270;97927;-42
2022/01/12 05:45:08;;;;;;;152.40;60.70;;;;;;;-4.04;83.03;100472.59;433171;1269;111339;-42
2022/01/12 05:55:16;;;;;;;175.90;67.90;;;;;;;-4.12;83.09;100466.70;433107;1269;108745;-43
2022/01/12 06:05:24;;;;;;;161.40;62.50;;;;;;;-4.15;82.94;100470.54;432680;1270;96615;-41
2022/01/12 06:15:32;;;;;;;154.80;68.40;;;;;;;-4.05;83.04;100475.23;432496;1271;110997;-40
2022/01/12 06:25:39;;;;;;;142.90;60.80;;;;;;;-3.87;83.08;100479.33;433166;1269;108963;-40
2022/01/12 06:35:47;;;;;;;196.40;75.10;;;;;;;-3.84;83.19;100496.23;433266;1270;97916;-39
2022/01/12 06:56:01;;;;;;;158.90;61.50;;;;;;;-3.77;83.53;100508.52;433169;1270;107871;-43
2022/01/12 07:06:09;;;;;;;155.60;60.70;;;;;;;-3.79;83.32;100516.38;433177;1270;97921;-42
2022/01/12 07:16:16;;;;;;;124.70;48.70;;;;;;;-3.80;82.95;100515.96;433264;1270;110056;-40
2022/01/12 07:26:25;;;;;;;96.90;40.90;;;;;;;-3.87;82.75;100522.73;432522;1271;109022;-43
2022/01/12 07:36:32;;;;;;;81.60;33.80;;;;;;;-3.68;82.96;100542.12;432567;1271;96622;-43
2022/01/12 07:46:39;;;;;;;85.30;35.00;;;;;;;-3.55;82.45;100554.42;433125;1270;109107;-40
2022/01/12 07:56:47;;;;;;;125.20;48.90;;;;;;;-3.37;82.96;100557.61;433197;1270;97506;-40
2022/01/12 08:06:55;;;;;;;112.10;43.90;;;;;;;-3.27;82.59;100552.41;433207;1271;97974;-41
2022/01/12 08:17:04;;;;;;;117.60;45.70;;;;;;;-3.34;82.75;100545.89;432715;1270;111136;-44
2022/01/12 08:27:11;;;;;;;103.70;43.10;;;;;;;-3.28;82.44;100546.27;433205;1270;107654;-40
2022/01/12 08:37:19;;;;;;;98.80;39.20;;;;;;;-3.31;82.60;100547.27;432765;1270;96777;-42
2022/01/12 08:47:26;;;;;;;106.40;43.20;;;;;;;-3.25;82.61;100546.92;432581;1271;111055;-42
2022/01/12 08:57:33;;;;;;;97.70;46.90;;;;;;;-3.19;82.08;100530.63;433143;1269;108790;-43
2022/01/12 09:07:42;;;;;;;84.10;39.70;;;;;;;-2.94;82.49;100533.56;433224;1270;96612;-42
2022/01/12 09:17:49;;;;;;;103.00;41.60;;;;;;;-2.67;82.34;100543.74;433139;1270;111139;-41
2022/01/12 09:38:02;;;;;;;122.10;48.30;;;;;;;-2.42;82.46;100536.59;432933;1270;108637;-43
2022/01/12 09:48:10;;;;;;;125.00;50.50;;;;;;;-2.37;82.21;100514.84;432850;1271;97923;-40
2022/01/12 09:58:17;;;;;;;105.00;41.30;;;;;;;-2.38;82.30;100512.31;432694;1271;108841;-43
2022/01/12 10:08:24;;;;;;;121.60;49.20;;;;;;;-2.29;82.00;100508.30;432673;1270;97559;-44
2022/01/12 10:18:32;;;;;;;61.70;32.00;;;;;;;-2.23;81.73;100481.81;432608;1269;111367;-43
2022/01/12 10:28:39;;;;;;;76.60;37.50;;;;;;;-2.08;81.80;100473.17;432592;1269;108786;-40
